Fairmont, Nebraska
Current Conditions -  °F | °C
As of 10:55 AM on Friday 31 Oct 2014 (Local Time) from KJYR Reporting Station
Clear Clear  
Wind Chill: 24°   Ceiling: Unl
Heat Index: 32°   Visibility: 10mi
Dew Point: 19°   Wind: 10mph
Humidity: 60%   Direction: 30°NNE
Pressure: 30.58"   Gusts: NA
Location:  40.64°N, 97.59°W
Report Text: KJYR 311555Z AUTO 03009KT 10SM CLR 00/M07 A3058 RMK AO2
Loading
Personal Weather Stations






























Interactive Weather Map
Tropical Storm Tracking
New forecast layout! Learn more

10-Day Weather Forecast

Advertisements
Track Severe Weather on mobile